createdAt,value
2022-12-18T00:01:07.282Z,30.60
2022-12-18T00:03:35.089Z,29.53
2022-12-18T00:06:02.563Z,28.17
2022-12-18T00:08:29.614Z,30.10
2022-12-18T00:10:59.720Z,28.17
2022-12-18T00:13:29.032Z,27.13
2022-12-18T00:15:56.584Z,28.47
2022-12-18T00:18:23.740Z,27.57
2022-12-18T00:20:50.566Z,26.53
2022-12-18T00:23:17.392Z,26.60
2022-12-18T00:25:44.190Z,27.60
2022-12-18T00:28:11.040Z,24.60
2022-12-18T00:30:37.846Z,25.93
2022-12-18T00:33:04.647Z,25.63
2022-12-18T00:35:32.864Z,25.87
2022-12-18T00:37:59.670Z,22.33
2022-12-18T00:40:26.495Z,24.47
2022-12-18T00:42:59.294Z,24.30
2022-12-18T00:45:32.023Z,24.73
2022-12-18T00:47:58.997Z,25.30
2022-12-18T00:50:26.538Z,23.83
2022-12-18T00:52:53.626Z,24.10
2022-12-18T00:55:20.596Z,25.37
2022-12-18T00:57:47.377Z,25.40
2022-12-18T01:00:15.976Z,23.63
2022-12-18T01:02:43.314Z,23.47
2022-12-18T01:05:15.822Z,22.63
2022-12-18T01:07:42.808Z,22.50
2022-12-18T01:10:12.392Z,23.87
2022-12-18T01:12:39.464Z,22.23
2022-12-18T01:15:08.167Z,21.90
2022-12-18T01:17:35.701Z,22.43
2022-12-18T01:20:02.627Z,22.43
2022-12-18T01:22:29.444Z,23.03
2022-12-18T01:24:56.290Z,22.43
2022-12-18T01:27:23.160Z,21.23
2022-12-18T01:29:50.819Z,23.13
2022-12-18T01:32:17.703Z,21.00
2022-12-18T01:34:44.671Z,20.50
2022-12-18T01:37:11.721Z,22.50
2022-12-18T01:39:38.676Z,20.77
2022-12-18T01:42:14.758Z,19.67
2022-12-18T01:45:01.918Z,21.50
2022-12-18T01:47:37.632Z,21.60
2022-12-18T01:50:26.111Z,19.70
2022-12-18T01:52:56.544Z,21.17
2022-12-18T01:55:26.699Z,20.40
2022-12-18T01:57:56.098Z,21.43
2022-12-18T02:00:24.673Z,21.80
2022-12-18T02:02:51.638Z,21.00
2022-12-18T02:05:39.060Z,19.87
2022-12-18T02:08:37.029Z,20.07
2022-12-18T02:11:15.566Z,21.80
2022-12-18T02:14:10.773Z,19.90
2022-12-18T02:16:45.177Z,21.00
2022-12-18T02:19:47.731Z,19.87
2022-12-18T02:22:23.411Z,19.57
2022-12-18T02:25:23.977Z,19.40
2022-12-18T02:27:53.308Z,19.97
2022-12-18T02:30:20.598Z,20.20
2022-12-18T02:32:51.691Z,20.63
2022-12-18T02:35:25.686Z,19.60
2022-12-18T02:37:54.096Z,20.40
2022-12-18T02:40:24.598Z,19.67
2022-12-18T02:42:51.614Z,20.67
2022-12-18T02:45:19.146Z,18.53
2022-12-18T02:47:49.369Z,18.80
2022-12-18T02:50:41.552Z,20.70
2022-12-18T02:53:08.335Z,18.90
2022-12-18T02:56:00.977Z,20.50
2022-12-18T02:58:44.140Z,20.33
2022-12-18T03:01:26.919Z,19.27
2022-12-18T03:04:00.667Z,20.00
2022-12-18T03:06:36.133Z,18.70
2022-12-18T03:09:09.356Z,20.60
2022-12-18T03:12:00.566Z,19.50
2022-12-18T03:14:30.456Z,21.27
2022-12-18T03:17:00.559Z,22.10
2022-12-18T03:19:32.491Z,22.23
2022-12-18T03:22:03.447Z,20.10
2022-12-18T03:24:32.777Z,21.90
2022-12-18T03:27:03.158Z,20.97
2022-12-18T03:29:34.927Z,21.00
2022-12-18T03:32:27.158Z,21.83
2022-12-18T03:34:58.593Z,20.63
2022-12-18T03:37:25.657Z,20.50
2022-12-18T03:39:52.655Z,20.57
2022-12-18T03:42:42.931Z,19.90
2022-12-18T03:45:24.478Z,20.50
2022-12-18T03:47:59.597Z,19.47
2022-12-18T03:50:32.177Z,20.63
2022-12-18T03:53:07.363Z,20.30
2022-12-18T03:55:36.430Z,19.57
2022-12-18T03:58:05.582Z,19.37
2022-12-18T04:00:33.038Z,19.77
2022-12-18T04:03:02.984Z,18.20
2022-12-18T04:05:31.166Z,19.63
2022-12-18T04:07:58.879Z,19.40
2022-12-18T04:10:25.710Z,18.50
2022-12-18T04:12:57.416Z,19.67
2022-12-18T04:15:25.079Z,19.57
2022-12-18T04:17:52.089Z,20.50
2022-12-18T04:20:19.370Z,21.07
2022-12-18T04:22:46.325Z,20.43
2022-12-18T04:25:13.597Z,19.93
2022-12-18T04:27:40.558Z,20.90
2022-12-18T04:30:07.970Z,21.07
2022-12-18T04:32:35.830Z,20.50
2022-12-18T04:35:03.140Z,21.20
2022-12-18T04:37:29.998Z,22.13
2022-12-18T04:39:56.894Z,23.30
2022-12-18T04:42:23.711Z,23.53
2022-12-18T04:44:50.599Z,22.80
2022-12-18T04:47:17.426Z,21.90
2022-12-18T04:49:44.261Z,20.80
2022-12-18T04:52:11.095Z,22.87
2022-12-18T04:54:37.925Z,22.00
2022-12-18T04:57:04.787Z,21.60
2022-12-18T04:59:31.663Z,20.70
2022-12-18T05:01:58.622Z,22.00
2022-12-18T05:04:25.622Z,22.40
2022-12-18T05:06:52.494Z,21.47
2022-12-18T05:09:19.298Z,22.50
2022-12-18T05:11:47.639Z,22.23
2022-12-18T05:14:14.471Z,20.80
2022-12-18T05:16:41.517Z,20.60
2022-12-18T05:19:08.499Z,20.90
2022-12-18T05:21:35.405Z,20.63
2022-12-18T05:24:02.362Z,17.13
2022-12-18T05:26:29.284Z,17.83
2022-12-18T05:28:57.638Z,17.53
2022-12-18T05:31:24.596Z,18.60
2022-12-18T05:33:51.459Z,18.87
2022-12-18T05:36:18.408Z,18.73
2022-12-18T05:38:45.229Z,17.50
2022-12-18T05:41:12.044Z,18.60
2022-12-18T05:43:40.813Z,17.77
2022-12-18T05:46:09.721Z,17.90
2022-12-18T05:48:36.602Z,18.43
2022-12-18T05:51:09.419Z,18.40
2022-12-18T05:53:36.716Z,19.07
2022-12-18T05:56:06.224Z,19.87
2022-12-18T05:58:34.123Z,20.20
2022-12-18T06:01:12.688Z,21.07
2022-12-18T06:03:40.549Z,20.07
2022-12-18T06:06:25.811Z,19.67
2022-12-18T06:08:53.316Z,19.80
2022-12-18T06:11:26.001Z,20.87
2022-12-18T06:13:58.133Z,19.27
2022-12-18T06:16:26.764Z,19.50
2022-12-18T06:18:53.693Z,18.70
2022-12-18T06:21:20.853Z,19.37
2022-12-18T06:23:47.747Z,18.77
2022-12-18T06:26:15.358Z,17.87
2022-12-18T06:28:42.848Z,18.33
2022-12-18T06:31:10.697Z,19.60
2022-12-18T06:33:38.301Z,18.37
2022-12-18T06:36:11.107Z,19.13
2022-12-18T06:38:40.536Z,18.40
2022-12-18T06:41:13.239Z,19.30
2022-12-18T06:43:40.497Z,18.53
2022-12-18T06:46:07.673Z,19.10
2022-12-18T06:48:34.866Z,17.20
2022-12-18T06:51:01.776Z,19.53
2022-12-18T06:53:29.135Z,18.40
2022-12-18T06:56:10.280Z,18.70
2022-12-18T06:58:38.254Z,19.97
2022-12-18T07:01:07.069Z,18.97
2022-12-18T07:03:34.012Z,20.97
2022-12-18T07:06:01.053Z,21.20
2022-12-18T07:08:27.886Z,19.50
2022-12-18T07:10:56.473Z,20.27
2022-12-18T07:13:23.824Z,20.77
2022-12-18T07:15:50.686Z,19.33
2022-12-18T07:18:17.509Z,22.80
2022-12-18T07:20:45.214Z,22.30
2022-12-18T07:23:12.973Z,20.03
2022-12-18T07:25:40.482Z,21.87
2022-12-18T07:28:08.212Z,21.20
2022-12-18T07:30:38.730Z,19.90
2022-12-18T07:33:05.544Z,18.63
2022-12-18T07:35:33.588Z,18.90
2022-12-18T07:38:00.425Z,19.33
2022-12-18T07:40:27.230Z,19.10
2022-12-18T07:42:54.066Z,19.37
2022-12-18T07:45:20.889Z,18.63
2022-12-18T07:47:47.801Z,20.23
2022-12-18T07:50:14.679Z,19.40
2022-12-18T07:52:42.023Z,19.80
2022-12-18T07:55:09.297Z,20.50
2022-12-18T07:57:55.216Z,19.47
2022-12-18T08:00:23.449Z,19.80
2022-12-18T08:02:50.358Z,19.67
2022-12-18T08:05:17.430Z,21.00
2022-12-18T08:07:44.255Z,19.23
2022-12-18T08:10:11.195Z,20.77
2022-12-18T08:12:38.059Z,20.23
2022-12-18T08:15:05.385Z,19.50
2022-12-18T08:17:33.150Z,19.43
2022-12-18T08:20:00.008Z,19.40
2022-12-18T08:22:27.056Z,19.40
2022-12-18T08:24:53.880Z,19.00
2022-12-18T08:27:29.490Z,20.20
2022-12-18T08:29:57.550Z,18.87
2022-12-18T08:32:25.158Z,22.37
2022-12-18T08:34:52.042Z,18.83
2022-12-18T08:37:19.044Z,21.27
2022-12-18T08:39:45.904Z,20.43
2022-12-18T08:42:31.662Z,20.80
2022-12-18T08:44:58.496Z,20.17
2022-12-18T08:47:26.979Z,20.20
2022-12-18T08:49:53.839Z,22.57
2022-12-18T08:52:20.674Z,22.40
2022-12-18T08:54:47.569Z,22.40
2022-12-18T08:57:14.412Z,22.37
2022-12-18T08:59:41.227Z,22.40
2022-12-18T09:02:11.285Z,21.70
2022-12-18T09:04:38.814Z,22.67
2022-12-18T09:07:05.619Z,22.00
2022-12-18T09:09:32.551Z,21.57
2022-12-18T09:11:59.424Z,22.70
2022-12-18T09:14:26.227Z,22.57
2022-12-18T09:16:53.080Z,23.17
2022-12-18T09:19:19.957Z,22.00
2022-12-18T09:21:48.453Z,23.43
2022-12-18T09:24:16.369Z,21.63
2022-12-18T09:26:45.202Z,21.77
2022-12-18T09:29:15.559Z,23.20
2022-12-18T09:31:43.328Z,21.80
2022-12-18T09:34:10.242Z,22.67
2022-12-18T09:36:37.202Z,21.70
2022-12-18T09:39:08.228Z,20.13
2022-12-18T09:41:59.021Z,21.30
2022-12-18T09:44:25.987Z,22.50
2022-12-18T09:46:56.089Z,22.13
2022-12-18T09:49:27.649Z,21.03
2022-12-18T09:52:30.169Z,19.63
2022-12-18T09:55:26.168Z,20.40
2022-12-18T09:58:02.554Z,18.23
2022-12-18T10:00:29.368Z,18.50
2022-12-18T10:03:11.805Z,18.60
2022-12-18T10:05:49.448Z,19.63
2022-12-18T10:08:40.091Z,19.27
2022-12-18T10:11:27.398Z,20.70
2022-12-18T10:14:05.196Z,17.80
2022-12-18T10:16:35.100Z,18.37
2022-12-18T10:19:01.891Z,19.50
2022-12-18T10:21:37.718Z,18.53
2022-12-18T10:24:33.569Z,21.33
2022-12-18T10:27:18.281Z,18.70
2022-12-18T10:29:46.685Z,18.80
2022-12-18T10:32:22.979Z,20.43
2022-12-18T10:34:56.667Z,19.87
2022-12-18T10:37:29.978Z,19.97
2022-12-18T10:40:08.920Z,20.57
2022-12-18T10:42:36.169Z,20.07
2022-12-18T10:45:15.378Z,20.27
2022-12-18T10:47:46.060Z,20.43
2022-12-18T10:53:32.038Z,19.57
2022-12-18T10:56:05.598Z,19.50
2022-12-18T10:58:38.860Z,19.77
2022-12-18T11:01:08.798Z,20.97
2022-12-18T11:03:40.366Z,19.57
2022-12-18T11:06:13.589Z,19.70
2022-12-18T11:08:43.748Z,20.90
2022-12-18T11:11:21.975Z,18.20
2022-12-18T11:14:03.851Z,17.87
2022-12-18T11:16:36.080Z,18.03
2022-12-18T11:19:25.283Z,18.83
2022-12-18T11:21:52.269Z,18.60
2022-12-18T11:24:25.444Z,20.40
2022-12-18T11:26:57.814Z,21.23
2022-12-18T11:29:35.920Z,18.10
2022-12-18T11:32:35.589Z,17.00
2022-12-18T11:35:18.298Z,17.10
2022-12-18T11:37:51.158Z,16.53
2022-12-18T11:40:23.588Z,15.90
2022-12-18T11:43:07.277Z,16.37
2022-12-18T11:45:44.504Z,15.23
2022-12-18T11:48:14.370Z,15.10
2022-12-18T11:50:55.597Z,15.20
2022-12-18T11:53:22.966Z,13.50
2022-12-18T11:56:18.473Z,13.00
2022-12-18T11:59:30.188Z,12.73
2022-12-18T12:02:36.525Z,13.90
2022-12-18T12:05:23.134Z,13.90
2022-12-18T12:08:13.194Z,12.97
2022-12-18T12:11:15.242Z,14.20
2022-12-18T12:14:14.530Z,14.10
2022-12-18T12:17:04.566Z,12.93
2022-12-18T12:19:43.694Z,14.07
2022-12-18T12:22:25.518Z,13.83
2022-12-18T12:24:59.235Z,12.67
2022-12-18T12:27:41.903Z,13.40
2022-12-18T12:30:32.598Z,12.90
2022-12-18T12:33:11.223Z,13.00
2022-12-18T12:35:44.202Z,13.80
2022-12-18T12:38:16.916Z,13.27
2022-12-18T12:41:29.281Z,13.60
2022-12-18T12:43:59.514Z,15.47
2022-12-18T12:46:27.546Z,14.60
2022-12-18T12:49:00.410Z,14.20
2022-12-18T12:51:34.867Z,13.60
2022-12-18T12:54:05.335Z,14.30
2022-12-18T12:56:56.770Z,14.73
2022-12-18T12:59:47.353Z,14.13
2022-12-18T13:02:30.771Z,13.60
2022-12-18T13:05:10.676Z,12.93
2022-12-18T13:07:48.704Z,13.43
2022-12-18T13:10:20.840Z,13.37
2022-12-18T13:12:58.493Z,14.13
2022-12-18T13:15:27.366Z,13.63
2022-12-18T13:18:09.641Z,14.00
2022-12-18T13:23:38.753Z,13.80
2022-12-18T13:26:11.798Z,13.90
2022-12-18T13:28:47.577Z,13.90
2022-12-18T13:31:42.595Z,14.47
2022-12-18T13:34:29.449Z,13.53
2022-12-18T13:37:17.806Z,13.20
2022-12-18T13:39:44.884Z,13.53
2022-12-18T13:42:31.973Z,13.13
2022-12-18T13:44:59.345Z,14.97
2022-12-18T13:47:41.264Z,13.27
2022-12-18T13:50:28.591Z,13.20
2022-12-18T13:52:59.385Z,12.67
2022-12-18T13:55:26.498Z,12.87
2022-12-18T13:58:05.589Z,14.60
2022-12-18T14:00:32.898Z,13.60
2022-12-18T14:03:00.575Z,13.10
2022-12-18T14:05:31.399Z,14.50
2022-12-18T14:08:12.490Z,13.30
2022-12-18T14:10:49.987Z,13.60
2022-12-18T14:13:21.419Z,15.33
2022-12-18T14:15:49.959Z,14.13
2022-12-18T14:18:22.329Z,13.83
2022-12-18T14:20:53.109Z,15.87
2022-12-18T14:23:33.818Z,15.30
2022-12-18T14:26:21.198Z,14.53
2022-12-18T14:28:48.075Z,13.10
2022-12-18T14:31:26.472Z,13.90
2022-12-18T14:33:54.400Z,12.63
2022-12-18T14:36:26.747Z,13.13
2022-12-18T14:38:57.709Z,15.10
2022-12-18T14:41:25.806Z,34.40
2022-12-18T14:43:55.114Z,14.50
2022-12-18T14:46:31.125Z,13.60
2022-12-18T14:48:58.626Z,12.80
2022-12-18T14:51:28.088Z,13.50
2022-12-18T14:53:57.889Z,13.47
2022-12-18T14:56:26.526Z,14.33
2022-12-18T14:59:00.169Z,13.57
2022-12-18T15:01:29.267Z,13.70
2022-12-18T15:03:58.109Z,13.00
2022-12-18T15:06:31.801Z,14.03
2022-12-18T15:09:00.454Z,14.47
2022-12-18T15:11:45.133Z,15.43
2022-12-18T15:14:31.465Z,14.73
2022-12-18T15:17:00.156Z,14.40
2022-12-18T15:19:48.737Z,14.13
2022-12-18T15:22:28.219Z,15.23
2022-12-18T15:24:57.224Z,15.10
2022-12-18T15:27:29.441Z,15.20
2022-12-18T15:30:11.186Z,13.67
2022-12-18T15:32:39.451Z,14.70
2022-12-18T15:35:12.375Z,13.63
2022-12-18T15:37:41.159Z,14.27
2022-12-18T15:40:14.362Z,14.93
2022-12-18T15:43:00.173Z,13.83
2022-12-18T15:45:27.079Z,15.27
2022-12-18T15:47:53.947Z,14.00
2022-12-18T15:50:22.106Z,15.50
2022-12-18T15:52:52.228Z,15.27
2022-12-18T15:55:41.212Z,15.77
2022-12-18T15:58:10.489Z,15.70
2022-12-18T16:00:39.879Z,16.00
2022-12-18T16:03:08.090Z,14.67
2022-12-18T16:05:35.146Z,15.30
2022-12-18T16:08:01.998Z,15.80
2022-12-18T16:10:29.040Z,16.30
2022-12-18T16:12:56.063Z,15.27
2022-12-18T16:15:24.983Z,14.93
2022-12-18T16:17:52.900Z,16.23
2022-12-18T16:20:23.731Z,16.80
2022-12-18T16:22:50.932Z,18.23
2022-12-18T16:25:27.847Z,17.07
2022-12-18T16:27:56.191Z,15.90
2022-12-18T16:30:29.483Z,16.83
2022-12-18T16:33:03.568Z,17.97
2022-12-18T16:35:30.473Z,17.67
2022-12-18T16:37:57.308Z,17.67
2022-12-18T16:40:24.145Z,16.30
2022-12-18T16:42:50.984Z,17.93
2022-12-18T16:45:19.286Z,17.30
2022-12-18T16:47:46.527Z,17.33
2022-12-18T16:50:13.662Z,17.30
2022-12-18T16:52:41.706Z,16.17
2022-12-18T16:55:09.243Z,17.57
2022-12-18T16:57:36.376Z,15.80
2022-12-18T17:00:06.042Z,18.10
2022-12-18T17:02:33.761Z,16.30
2022-12-18T17:05:00.901Z,16.37
2022-12-18T17:07:28.510Z,16.13
2022-12-18T17:09:55.882Z,16.80
2022-12-18T17:12:23.537Z,16.90
2022-12-18T17:14:50.634Z,18.03
2022-12-18T17:17:22.560Z,15.73
2022-12-18T17:19:51.494Z,15.63
2022-12-18T17:22:18.626Z,15.87
2022-12-18T17:24:46.857Z,18.67
2022-12-18T17:27:13.802Z,16.77
2022-12-18T17:29:46.784Z,16.20
2022-12-18T17:32:15.211Z,23.30
2022-12-18T17:34:42.068Z,17.07
2022-12-18T17:37:09.326Z,17.90
2022-12-18T17:39:36.501Z,17.00
2022-12-18T17:42:03.922Z,16.10
2022-12-18T17:44:32.113Z,16.97
2022-12-18T17:46:59.011Z,16.53
2022-12-18T17:49:25.869Z,16.07
2022-12-18T17:51:53.850Z,16.90
2022-12-18T17:54:20.799Z,16.83
2022-12-18T17:56:47.607Z,16.40
2022-12-18T17:59:14.849Z,17.27
2022-12-18T18:01:45.062Z,16.83
2022-12-18T18:04:13.684Z,17.77
2022-12-18T18:06:40.869Z,16.87
2022-12-18T18:09:09.942Z,16.57
2022-12-18T18:12:02.562Z,17.13
2022-12-18T18:14:29.733Z,17.87
2022-12-18T18:16:56.621Z,17.77
2022-12-18T18:19:26.132Z,17.17
2022-12-18T18:21:54.620Z,17.00
2022-12-18T18:24:23.634Z,17.87
2022-12-18T18:26:50.828Z,17.30
2022-12-18T18:29:20.905Z,17.80
2022-12-18T18:31:48.047Z,17.60
2022-12-18T18:34:24.384Z,17.30
2022-12-18T18:36:51.694Z,18.73
2022-12-18T18:39:19.110Z,17.83
2022-12-18T18:41:47.853Z,18.30
2022-12-18T18:44:16.440Z,17.97
2022-12-18T18:46:43.594Z,19.57
2022-12-18T18:49:10.853Z,17.20
2022-12-18T18:51:37.751Z,19.70
2022-12-18T18:54:04.746Z,18.57
2022-12-18T18:59:19.270Z,17.43
2022-12-18T19:01:52.877Z,17.90
2022-12-18T19:04:19.908Z,18.67
2022-12-18T19:06:47.828Z,18.37
2022-12-18T19:09:15.531Z,18.43
2022-12-18T19:12:01.281Z,22.40
2022-12-18T19:14:28.170Z,19.60
2022-12-18T19:16:55.084Z,18.53
2022-12-18T19:19:22.749Z,19.10
2022-12-18T19:21:50.141Z,21.60
2022-12-18T19:24:17.075Z,19.90
2022-12-18T19:26:44.079Z,19.23
2022-12-18T19:29:11.971Z,18.80
2022-12-18T19:31:38.907Z,21.57
2022-12-18T19:34:09.696Z,18.50
2022-12-18T19:36:39.022Z,18.67
2022-12-18T19:39:17.743Z,20.17
2022-12-18T19:41:46.589Z,18.10
2022-12-18T19:44:15.765Z,18.60
2022-12-18T19:46:43.100Z,18.20
2022-12-18T19:49:10.982Z,18.50
2022-12-18T19:51:38.663Z,18.60
2022-12-18T19:54:05.929Z,19.30
2022-12-18T19:56:34.658Z,19.17
2022-12-18T19:59:02.671Z,18.07
2022-12-18T20:01:32.510Z,19.33
2022-12-18T20:04:00.448Z,19.27
2022-12-18T20:06:51.515Z,18.50
2022-12-18T20:09:19.318Z,18.93
2022-12-18T20:11:47.364Z,19.00
2022-12-18T20:14:21.154Z,17.90
2022-12-18T20:16:52.380Z,20.53
2022-12-18T20:19:19.710Z,21.33
2022-12-18T20:21:47.511Z,20.23
2022-12-18T20:24:14.421Z,22.57
2022-12-18T20:26:41.271Z,20.03
2022-12-18T20:29:08.341Z,21.10
2022-12-18T20:31:35.376Z,21.90
2022-12-18T20:34:03.547Z,25.87
2022-12-18T20:36:33.050Z,27.47
2022-12-18T20:39:05.395Z,26.50
2022-12-18T20:41:38.126Z,22.97
2022-12-18T20:44:22.837Z,22.07
2022-12-18T20:46:56.702Z,19.80
2022-12-18T20:49:25.564Z,21.80
2022-12-18T20:51:57.789Z,23.23
2022-12-18T20:54:26.331Z,22.30
2022-12-18T20:56:53.429Z,23.10
2022-12-18T20:59:20.576Z,21.90
2022-12-18T21:01:48.803Z,22.00
2022-12-18T21:04:18.288Z,22.17
2022-12-18T21:06:49.395Z,20.83
2022-12-18T21:09:19.291Z,23.20
2022-12-18T21:12:04.979Z,22.03
2022-12-18T21:14:32.076Z,22.60
2022-12-18T21:17:02.005Z,21.50
2022-12-18T21:19:29.634Z,20.50
2022-12-18T21:21:57.564Z,20.83
2022-12-18T21:24:25.315Z,20.97
2022-12-18T21:26:52.317Z,21.50
2022-12-18T21:29:26.743Z,21.20
2022-12-18T21:31:54.936Z,20.63
2022-12-18T21:34:27.265Z,21.90
2022-12-18T21:36:55.962Z,22.10
2022-12-18T21:39:23.146Z,20.27
2022-12-18T21:42:09.884Z,19.60
2022-12-18T21:44:42.064Z,22.30
2022-12-18T21:47:21.666Z,21.33
2022-12-18T21:49:51.806Z,21.70
2022-12-18T21:52:18.744Z,20.23
2022-12-18T21:54:45.635Z,19.80
2022-12-18T21:57:13.540Z,22.83
2022-12-18T21:59:42.391Z,19.77
2022-12-18T22:02:14.967Z,20.77
2022-12-18T22:04:42.827Z,20.20
2022-12-18T22:07:10.844Z,20.80
2022-12-18T22:09:38.632Z,22.47
2022-12-18T22:12:06.157Z,20.93
2022-12-18T22:14:33.055Z,21.70
2022-12-18T22:16:59.923Z,22.30
2022-12-18T22:19:27.992Z,20.73
2022-12-18T22:21:55.374Z,21.20
2022-12-18T22:24:24.527Z,20.10
2022-12-18T22:27:01.946Z,19.53
2022-12-18T22:29:48.179Z,20.20
2022-12-18T22:32:20.659Z,20.50
2022-12-18T22:35:07.985Z,19.50
2022-12-18T22:37:37.424Z,20.70
2022-12-18T22:40:05.965Z,19.07
2022-12-18T22:42:34.201Z,19.97
2022-12-18T22:45:01.022Z,19.77
2022-12-18T22:47:30.075Z,20.37
2022-12-18T22:49:57.221Z,19.73
2022-12-18T22:52:24.861Z,19.07
2022-12-18T22:54:53.537Z,20.27
2022-12-18T22:57:24.215Z,20.10
2022-12-18T22:59:51.730Z,19.40
2022-12-18T23:02:19.689Z,19.07
2022-12-18T23:04:47.716Z,19.37
2022-12-18T23:07:15.524Z,20.03
2022-12-18T23:09:42.551Z,19.83
2022-12-18T23:12:15.153Z,20.40
2022-12-18T23:14:42.219Z,19.23
2022-12-18T23:17:09.092Z,20.60
2022-12-18T23:19:36.304Z,20.87
2022-12-18T23:22:07.249Z,22.20
2022-12-18T23:24:36.937Z,19.03
2022-12-18T23:27:03.846Z,20.70
2022-12-18T23:29:35.063Z,20.47
2022-12-18T23:32:01.895Z,19.97
2022-12-18T23:34:28.736Z,20.60
2022-12-18T23:36:56.199Z,21.13
2022-12-18T23:39:29.719Z,19.97
2022-12-18T23:42:00.655Z,20.27
2022-12-18T23:44:28.190Z,20.50
2022-12-18T23:46:55.472Z,19.77
2022-12-18T23:49:22.946Z,19.70
2022-12-18T23:51:50.211Z,19.80
2022-12-18T23:54:17.050Z,19.30
2022-12-18T23:56:47.934Z,19.33
2022-12-18T23:59:14.736Z,18.77
